Time,TemperatureF,DewpointF,PressureIn,WindDirection,WindDirectionDegrees,WindSpeedMPH,WindSpeedGustMPH,Humidity,HourlyPrecipIn,Conditions,Clouds,dailyrainin,SoftwareType,DateUTC
2013-05-03 00:06:00,23.8,11.0,30.55,West,269,0.0,1.0,58,0.00,,,0.00,weatherlink.com 1.10,2013-05-03 06:06:00,
2013-05-03 00:21:00,23.5,11.0,30.54,West,269,0.0,2.0,59,0.00,,,0.00,weatherlink.com 1.10,2013-05-03 06:21:00,
2013-05-03 00:36:00,23.4,10.0,30.54,West,269,0.0,1.0,57,0.00,,,0.00,weatherlink.com 1.10,2013-05-03 06:36:00,
2013-05-03 00:52:00,23.3,10.0,30.53,West,269,0.0,0.0,57,0.00,,,0.00,weatherlink.com 1.10,2013-05-03 06:52:00,
2013-05-03 01:06:00,23.3,10.0,30.52,West,269,0.0,2.0,58,0.00,,,0.00,weatherlink.com 1.10,2013-05-03 07:06:00,
2013-05-03 01:21:00,23.3,11.0,30.51,West,269,0.0,2.0,60,0.00,,,0.00,weatherlink.com 1.10,2013-05-03 07:21:00,
2013-05-03 01:36:00,23.1,10.0,30.50,West,269,0.0,0.0,58,0.00,,,0.00,weatherlink.com 1.10,2013-05-03 07:36:00,
2013-05-03 01:51:00,22.8,10.0,30.50,West,269,0.0,0.0,58,0.00,,,0.00,weatherlink.com 1.10,2013-05-03 07:51:00,
2013-05-03 02:06:00,22.9,10.0,30.49,West,267,1.0,2.0,59,0.00,,,0.00,weatherlink.com 1.10,2013-05-03 08:06:00,
2013-05-03 02:21:00,22.9,11.0,30.48,West,267,0.0,1.0,60,0.00,,,0.00,weatherlink.com 1.10,2013-05-03 08:21:00,
2013-05-03 02:36:00,22.4,11.0,30.48,West,267,0.0,0.0,61,0.00,,,0.00,weatherlink.com 1.10,2013-05-03 08:36:00,
2013-05-03 02:51:00,21.8,10.0,30.48,West,267,0.0,0.0,60,0.00,,,0.00,weatherlink.com 1.10,2013-05-03 08:51:00,
2013-05-03 03:07:00,21.8,10.0,30.48,West,267,0.0,0.0,60,0.00,,,0.00,weatherlink.com 1.10,2013-05-03 09:07:00,
2013-05-03 03:22:00,22.0,10.0,30.47,West,267,0.0,0.0,60,0.00,,,0.00,weatherlink.com 1.10,2013-05-03 09:22:00,
2013-05-03 03:37:00,21.8,11.0,30.47,West,267,0.0,0.0,62,0.00,,,0.00,weatherlink.com 1.10,2013-05-03 09:37:00,
2013-05-03 03:52:00,21.5,11.0,30.47,West,267,0.0,0.0,63,0.00,,,0.00,weatherlink.com 1.10,2013-05-03 09:52:00,
2013-05-03 04:07:00,21.3,10.0,30.47,West,267,0.0,0.0,62,0.00,,,0.00,weatherlink.com 1.10,2013-05-03 10:07:00,
2013-05-03 04:22:00,21.2,10.0,30.46,West,267,0.0,0.0,62,0.00,,,0.00,weatherlink.com 1.10,2013-05-03 10:22:00,
2013-05-03 04:37:00,21.3,10.0,30.46,West,267,0.0,0.0,61,0.00,,,0.00,weatherlink.com 1.10,2013-05-03 10:37:00,
2013-05-03 04:52:00,21.6,10.0,30.45,West,267,0.0,0.0,61,0.00,,,0.00,weatherlink.com 1.10,2013-05-03 10:52:00,
2013-05-03 05:07:00,21.5,9.0,30.45,West,267,0.0,1.0,60,0.00,,,0.00,weatherlink.com 1.10,2013-05-03 11:07:00,
2013-05-03 05:22:00,21.5,10.0,30.44,West,267,0.0,1.0,61,0.00,,,0.00,weatherlink.com 1.10,2013-05-03 11:22:00,
2013-05-03 05:37:00,21.4,10.0,30.43,West,267,0.0,1.0,61,0.00,,,0.00,weatherlink.com 1.10,2013-05-03 11:37:00,
2013-05-03 05:52:00,22.0,8.0,30.43,West,267,0.0,0.0,55,0.00,,,0.00,weatherlink.com 1.10,2013-05-03 11:52:00,
2013-05-03 06:07:00,22.4,8.0,30.43,West,267,0.0,0.0,54,0.00,,,0.00,weatherlink.com 1.10,2013-05-03 12:07:00,
2013-05-03 06:22:00,22.7,8.0,30.43,West,267,0.0,0.0,54,0.00,,,0.00,weatherlink.com 1.10,2013-05-03 12:22:00,
2013-05-03 06:37:00,22.5,12.0,30.42,West,267,0.0,1.0,63,0.00,,,0.00,weatherlink.com 1.10,2013-05-03 12:37:00,
2013-05-03 06:52:00,22.2,11.0,30.43,SSE,155,0.0,1.0,63,0.00,,,0.00,weatherlink.com 1.10,2013-05-03 12:52:00,
2013-05-03 07:07:00,22.6,11.0,30.42,SSE,155,0.0,0.0,62,0.00,,,0.00,weatherlink.com 1.10,2013-05-03 13:07:00,
2013-05-03 07:22:00,25.0,14.0,30.41,SSE,155,0.0,0.0,64,0.00,,,0.00,weatherlink.com 1.10,2013-05-03 13:22:00,
2013-05-03 07:37:00,27.8,14.0,30.41,ESE,118,0.0,3.0,56,0.00,,,0.00,weatherlink.com 1.10,2013-05-03 13:37:00,
2013-05-03 07:52:00,29.0,15.0,30.40,East,82,0.0,1.0,55,0.00,,,0.00,weatherlink.com 1.10,2013-05-03 13:52:00,
2013-05-03 08:07:00,29.9,12.0,30.39,East,82,0.0,1.0,48,0.00,,,0.00,weatherlink.com 1.10,2013-05-03 14:07:00,
2013-05-03 08:22:00,31.8,11.0,30.38,NNE,22,0.0,2.0,43,0.00,,,0.00,weatherlink.com 1.10,2013-05-03 14:22:00,
2013-05-03 08:37:00,33.0,10.0,30.37,WNW,284,0.0,3.0,38,0.00,,,0.00,weatherlink.com 1.10,2013-05-03 14:37:00,
2013-05-03 08:52:00,34.4,10.0,30.35,West,260,1.0,4.0,37,0.00,,,0.00,weatherlink.com 1.10,2013-05-03 14:52:00,
2013-05-03 09:08:00,37.3,11.0,30.33,WNW,297,1.0,3.0,34,0.00,,,0.00,weatherlink.com 1.10,2013-05-03 15:08:00,
2013-05-03 09:23:00,37.8,16.0,30.33,NNE,33,1.0,4.0,41,0.00,,,0.00,weatherlink.com 1.10,2013-05-03 15:23:00,
2013-05-03 09:38:00,37.9,17.0,30.32,North,351,2.0,5.0,42,0.00,,,0.00,weatherlink.com 1.10,2013-05-03 15:38:00,
2013-05-03 09:53:00,38.3,17.0,30.31,NNW,342,1.0,6.0,43,0.00,,,0.00,weatherlink.com 1.10,2013-05-03 15:53:00,
2013-05-03 10:08:00,39.3,18.0,30.30,NNE,31,0.0,5.0,42,0.00,,,0.00,weatherlink.com 1.10,2013-05-03 16:08:00,
2013-05-03 10:23:00,40.2,17.0,30.30,NW,315,2.0,5.0,39,0.00,,,0.00,weatherlink.com 1.10,2013-05-03 16:23:00,
2013-05-03 10:38:00,41.2,17.0,30.29,NE,36,3.0,4.0,37,0.00,,,0.00,weatherlink.com 1.10,2013-05-03 16:38:00,
2013-05-03 10:53:00,43.1,18.0,30.28,ESE,121,0.0,7.0,37,0.00,,,0.00,weatherlink.com 1.10,2013-05-03 16:53:00,
2013-05-03 11:08:00,43.4,19.0,30.27,SSW,202,0.0,5.0,37,0.00,,,0.00,weatherlink.com 1.10,2013-05-03 17:08:00,
2013-05-03 11:23:00,43.3,18.0,30.26,North,355,1.0,4.0,36,0.00,,,0.00,weatherlink.com 1.10,2013-05-03 17:23:00,
2013-05-03 11:38:00,45.2,18.0,30.25,East,90,1.0,7.0,34,0.00,,,0.00,weatherlink.com 1.10,2013-05-03 17:38:00,
2013-05-03 11:53:00,44.8,20.0,30.24,NW,318,0.0,5.0,37,0.00,,,0.00,weatherlink.com 1.10,2013-05-03 17:53:00,
2013-05-03 12:08:00,45.0,18.0,30.23,WSW,257,1.0,5.0,34,0.00,,,0.00,weatherlink.com 1.10,2013-05-03 18:08:00,
2013-05-03 12:23:00,45.4,16.0,30.21,NNW,337,0.0,7.0,31,0.00,,,0.00,weatherlink.com 1.10,2013-05-03 18:23:00,
2013-05-03 12:39:00,45.5,18.0,30.20,WNW,302,2.0,7.0,34,0.00,,,0.00,weatherlink.com 1.10,2013-05-03 18:39:00,
2013-05-03 12:54:00,46.3,18.0,30.20,WNW,302,3.0,7.0,32,0.00,,,0.00,weatherlink.com 1.10,2013-05-03 18:54:00,
2013-05-03 13:09:00,46.4,17.0,30.19,West,273,1.0,8.0,31,0.00,,,0.00,weatherlink.com 1.10,2013-05-03 19:09:00,
2013-05-03 13:24:00,46.6,16.0,30.18,WNW,292,0.0,9.0,29,0.00,,,0.00,weatherlink.com 1.10,2013-05-03 19:24:00,
2013-05-03 13:39:00,46.8,15.0,30.17,NNE,26,1.0,8.0,28,0.00,,,0.00,weatherlink.com 1.10,2013-05-03 19:39:00,
2013-05-03 13:54:00,46.8,14.0,30.16,WNW,289,3.0,10.0,27,0.00,,,0.00,weatherlink.com 1.10,2013-05-03 19:54:00,
2013-05-03 14:09:00,47.4,16.0,30.15,NW,323,0.0,8.0,28,0.00,,,0.00,weatherlink.com 1.10,2013-05-03 20:09:00,
2013-05-03 14:24:00,48.7,14.0,30.13,WNW,302,0.0,8.0,25,0.00,,,0.00,weatherlink.com 1.10,2013-05-03 20:24:00,
2013-05-03 14:39:00,48.8,14.0,30.12,North,355,0.0,6.0,25,0.00,,,0.00,weatherlink.com 1.10,2013-05-03 20:39:00,
2013-05-03 14:54:00,50.1,15.0,30.11,NNW,347,0.0,8.0,25,0.00,,,0.00,weatherlink.com 1.10,2013-05-03 20:54:00,
2013-05-03 15:09:00,49.3,16.0,30.09,North,360,0.0,4.0,26,0.01,,,0.01,weatherlink.com 1.10,2013-05-03 21:09:00,
2013-05-03 15:24:00,50.1,16.0,30.08,NNE,28,2.0,7.0,26,0.01,,,0.01,weatherlink.com 1.10,2013-05-03 21:24:00,
2013-05-03 15:41:00,49.8,13.0,30.07,NNE,21,1.0,6.0,23,0.01,,,0.01,weatherlink.com 1.10,2013-05-03 21:41:00,
2013-05-03 15:55:00,50.1,15.0,30.06,NNE,26,2.0,7.0,25,0.01,,,0.01,weatherlink.com 1.10,2013-05-03 21:55:00,
2013-05-03 16:10:00,50.0,17.0,30.05,NE,45,0.0,4.0,27,0.00,,,0.01,weatherlink.com 1.10,2013-05-03 22:10:00,
2013-05-03 16:25:00,50.3,16.0,30.04,NE,54,4.0,8.0,26,0.00,,,0.01,weatherlink.com 1.10,2013-05-03 22:25:00,
2013-05-03 16:40:00,50.1,16.0,30.03,NNE,15,0.0,7.0,26,0.00,,,0.01,weatherlink.com 1.10,2013-05-03 22:40:00,
2013-05-03 16:55:00,50.0,15.0,30.02,NE,46,0.0,6.0,25,0.00,,,0.01,weatherlink.com 1.10,2013-05-03 22:55:00,
2013-05-03 17:10:00,50.1,16.0,30.01,NNW,329,8.0,9.0,26,0.00,,,0.01,weatherlink.com 1.10,2013-05-03 23:10:00,
2013-05-03 17:25:00,50.0,15.0,30.01,NE,40,1.0,8.0,25,0.00,,,0.01,weatherlink.com 1.10,2013-05-03 23:25:00,
2013-05-03 17:40:00,49.5,14.0,30.01,NNE,32,0.0,4.0,24,0.00,,,0.01,weatherlink.com 1.10,2013-05-03 23:40:00,
2013-05-03 17:55:00,49.7,15.0,30.00,NW,309,0.0,6.0,25,0.00,,,0.01,weatherlink.com 1.10,2013-05-03 23:55:00,
2013-05-03 18:25:00,49.0,15.0,30.00,ENE,67,0.0,4.0,26,0.00,,,0.01,weatherlink.com 1.10,2013-05-04 00:25:00,
2013-05-03 18:40:00,48.2,19.0,29.99,ESE,108,3.0,17.0,32,0.00,,,0.01,weatherlink.com 1.10,2013-05-04 00:40:00,
2013-05-03 18:55:00,46.7,20.0,29.99,ESE,107,3.0,16.0,34,0.00,,,0.01,weatherlink.com 1.10,2013-05-04 00:55:00,
2013-05-03 19:10:00,45.3,21.0,29.99,ESE,104,4.0,16.0,38,0.00,,,0.01,weatherlink.com 1.10,2013-05-04 01:10:00,
2013-05-03 19:27:00,43.2,20.0,29.99,East,94,1.0,14.0,40,0.00,,,0.01,weatherlink.com 1.10,2013-05-04 01:27:00,
2013-05-03 19:41:00,41.7,19.0,29.99,ESE,104,5.0,11.0,41,0.00,,,0.01,weatherlink.com 1.10,2013-05-04 01:41:00,
2013-05-03 19:56:00,40.4,19.0,29.99,ESE,107,0.0,15.0,42,0.00,,,0.01,weatherlink.com 1.10,2013-05-04 01:56:00,
2013-05-03 20:10:00,39.5,19.0,29.99,ESE,109,2.0,9.0,44,0.00,,,0.01,weatherlink.com 1.10,2013-05-04 02:10:00,
2013-05-03 20:25:00,38.6,21.0,30.00,SE,142,0.0,7.0,49,0.00,,,0.01,weatherlink.com 1.10,2013-05-04 02:25:00,
2013-05-03 20:40:00,37.3,20.0,30.00,SE,135,0.0,4.0,49,0.00,,,0.01,weatherlink.com 1.10,2013-05-04 02:40:00,
2013-05-03 20:55:00,36.7,19.0,30.00,ESE,116,0.0,10.0,48,0.00,,,0.01,weatherlink.com 1.10,2013-05-04 02:55:00,
2013-05-03 21:11:00,36.5,18.0,30.01,ESE,109,0.0,7.0,47,0.00,,,0.01,weatherlink.com 1.10,2013-05-04 03:11:00,
2013-05-03 21:26:00,35.9,18.0,30.01,SE,140,0.0,7.0,48,0.00,,,0.01,weatherlink.com 1.10,2013-05-04 03:26:00,
2013-05-03 21:41:00,35.9,17.0,30.02,SSE,155,0.0,7.0,46,0.00,,,0.01,weatherlink.com 1.10,2013-05-04 03:41:00,
2013-05-03 21:56:00,35.3,17.0,30.03,East,92,0.0,2.0,48,0.00,,,0.01,weatherlink.com 1.10,2013-05-04 03:56:00,
2013-05-03 22:10:00,34.4,17.0,30.04,East,101,0.0,0.0,50,0.00,,,0.01,weatherlink.com 1.10,2013-05-04 04:10:00,
2013-05-03 22:25:00,33.2,18.0,30.04,East,101,0.0,0.0,53,0.00,,,0.01,weatherlink.com 1.10,2013-05-04 04:25:00,
2013-05-03 22:40:00,33.1,17.0,30.03,East,84,0.0,0.0,51,0.00,,,0.01,weatherlink.com 1.10,2013-05-04 04:40:00,
2013-05-03 22:55:00,33.3,17.0,30.02,East,97,0.0,3.0,51,0.00,,,0.01,weatherlink.com 1.10,2013-05-04 04:55:00,
2013-05-03 23:12:00,33.2,18.0,30.02,ENE,76,0.0,5.0,53,0.00,,,0.01,weatherlink.com 1.10,2013-05-04 05:12:00,
2013-05-03 23:26:00,33.0,18.0,30.01,ESE,109,0.0,5.0,54,0.00,,,0.01,weatherlink.com 1.10,2013-05-04 05:26:00,
2013-05-03 23:41:00,32.5,18.0,30.01,East,94,0.0,7.0,56,0.00,,,0.01,weatherlink.com 1.10,2013-05-04 05:41:00,
2013-05-03 23:56:00,32.3,18.0,30.01,ESE,119,3.0,5.0,56,0.00,,,0.01,weatherlink.com 1.10,2013-05-04 05:56:00,